sensor_id;sensor_type;location;lat;lon;timestamp;temperature;humidity
27413;DHT22;14871;52.702;5.230;2024-02-04T00:01:42;11.60;99.90
27413;DHT22;14871;52.702;5.230;2024-02-04T00:04:08;11.50;99.90
27413;DHT22;14871;52.702;5.230;2024-02-04T00:06:33;11.50;99.90
27413;DHT22;14871;52.702;5.230;2024-02-04T00:09:00;11.50;99.90
27413;DHT22;14871;52.702;5.230;2024-02-04T00:11:26;11.40;99.90
27413;DHT22;14871;52.702;5.230;2024-02-04T00:13:51;11.20;99.90
27413;DHT22;14871;52.702;5.230;2024-02-04T00:16:17;11.20;99.90
27413;DHT22;14871;52.702;5.230;2024-02-04T00:18:43;11.10;99.90
27413;DHT22;14871;52.702;5.230;2024-02-04T00:21:09;11.20;99.90
27413;DHT22;14871;52.702;5.230;2024-02-04T00:23:35;11.10;99.90
27413;DHT22;14871;52.702;5.230;2024-02-04T00:26:00;11.00;99.90
27413;DHT22;14871;52.702;5.230;2024-02-04T00:28:26;11.00;99.90
27413;DHT22;14871;52.702;5.230;2024-02-04T00:30:53;10.90;99.90
27413;DHT22;14871;52.702;5.230;2024-02-04T00:33:21;10.90;99.90
27413;DHT22;14871;52.702;5.230;2024-02-04T00:35:47;10.90;99.90
27413;DHT22;14871;52.702;5.230;2024-02-04T00:38:13;11.00;99.90
27413;DHT22;14871;52.702;5.230;2024-02-04T00:40:39;11.20;99.90
27413;DHT22;14871;52.702;5.230;2024-02-04T00:43:04;11.10;99.90
27413;DHT22;14871;52.702;5.230;2024-02-04T00:45:30;11.00;99.90
27413;DHT22;14871;52.702;5.230;2024-02-04T00:47:55;11.00;99.90
27413;DHT22;14871;52.702;5.230;2024-02-04T00:50:21;10.80;99.90
27413;DHT22;14871;52.702;5.230;2024-02-04T00:52:46;10.80;99.90
27413;DHT22;14871;52.702;5.230;2024-02-04T00:55:12;10.70;99.90
27413;DHT22;14871;52.702;5.230;2024-02-04T00:57:38;10.70;99.90
27413;DHT22;14871;52.702;5.230;2024-02-04T01:00:04;10.70;99.90
27413;DHT22;14871;52.702;5.230;2024-02-04T01:02:30;10.60;99.90
27413;DHT22;14871;52.702;5.230;2024-02-04T01:04:55;10.50;99.90
27413;DHT22;14871;52.702;5.230;2024-02-04T01:07:21;10.50;99.90
27413;DHT22;14871;52.702;5.230;2024-02-04T01:09:47;10.30;99.90
27413;DHT22;14871;52.702;5.230;2024-02-04T01:12:12;10.40;99.90
27413;DHT22;14871;52.702;5.230;2024-02-04T01:14:38;10.30;99.90
27413;DHT22;14871;52.702;5.230;2024-02-04T01:17:03;10.20;99.90
27413;DHT22;14871;52.702;5.230;2024-02-04T01:19:29;10.30;99.90
27413;DHT22;14871;52.702;5.230;2024-02-04T01:21:55;10.30;99.90
27413;DHT22;14871;52.702;5.230;2024-02-04T01:24:20;10.20;99.90
27413;DHT22;14871;52.702;5.230;2024-02-04T01:26:46;10.10;99.90
27413;DHT22;14871;52.702;5.230;2024-02-04T01:29:11;10.10;99.90
27413;DHT22;14871;52.702;5.230;2024-02-04T01:31:37;10.00;99.90
27413;DHT22;14871;52.702;5.230;2024-02-04T01:34:02;10.10;99.90
27413;DHT22;14871;52.702;5.230;2024-02-04T01:36:28;10.00;99.90
27413;DHT22;14871;52.702;5.230;2024-02-04T01:38:54;10.10;99.90
27413;DHT22;14871;52.702;5.230;2024-02-04T01:41:19;10.10;99.90
27413;DHT22;14871;52.702;5.230;2024-02-04T01:43:45;10.00;99.90
27413;DHT22;14871;52.702;5.230;2024-02-04T01:46:11;10.10;99.90
27413;DHT22;14871;52.702;5.230;2024-02-04T01:48:37;9.90;99.90
27413;DHT22;14871;52.702;5.230;2024-02-04T01:51:03;10.00;99.90
27413;DHT22;14871;52.702;5.230;2024-02-04T01:53:32;9.90;99.90
27413;DHT22;14871;52.702;5.230;2024-02-04T01:55:59;9.90;99.90
27413;DHT22;14871;52.702;5.230;2024-02-04T01:58:25;9.80;99.90
27413;DHT22;14871;52.702;5.230;2024-02-04T02:00:51;10.00;99.90
27413;DHT22;14871;52.702;5.230;2024-02-04T02:03:17;9.90;99.90
27413;DHT22;14871;52.702;5.230;2024-02-04T02:05:42;9.80;99.90
27413;DHT22;14871;52.702;5.230;2024-02-04T02:08:08;9.80;99.90
27413;DHT22;14871;52.702;5.230;2024-02-04T02:10:34;9.80;99.90
27413;DHT22;14871;52.702;5.230;2024-02-04T02:13:07;9.70;99.90
27413;DHT22;14871;52.702;5.230;2024-02-04T02:15:48;9.70;99.90
27413;DHT22;14871;52.702;5.230;2024-02-04T02:18:21;9.70;99.90
27413;DHT22;14871;52.702;5.230;2024-02-04T02:26:38;9.90;99.90
27413;DHT22;14871;52.702;5.230;2024-02-04T02:29:05;10.00;99.90
27413;DHT22;14871;52.702;5.230;2024-02-04T02:31:37;10.10;99.90
27413;DHT22;14871;52.702;5.230;2024-02-04T02:34:03;10.00;99.90
27413;DHT22;14871;52.702;5.230;2024-02-04T02:36:33;10.00;99.90
27413;DHT22;14871;52.702;5.230;2024-02-04T02:39:07;9.80;99.90
27413;DHT22;14871;52.702;5.230;2024-02-04T02:41:38;9.90;99.90
27413;DHT22;14871;52.702;5.230;2024-02-04T02:44:05;9.90;99.90
27413;DHT22;14871;52.702;5.230;2024-02-04T02:46:33;9.80;99.90
27413;DHT22;14871;52.702;5.230;2024-02-04T02:48:58;9.80;99.90
27413;DHT22;14871;52.702;5.230;2024-02-04T02:51:24;9.80;99.90
27413;DHT22;14871;52.702;5.230;2024-02-04T02:53:49;10.00;99.90
27413;DHT22;14871;52.702;5.230;2024-02-04T02:56:15;9.90;99.90
27413;DHT22;14871;52.702;5.230;2024-02-04T02:58:41;9.90;99.90
27413;DHT22;14871;52.702;5.230;2024-02-04T03:01:06;10.00;99.90
27413;DHT22;14871;52.702;5.230;2024-02-04T03:03:32;10.00;99.90
27413;DHT22;14871;52.702;5.230;2024-02-04T03:05:58;10.00;99.90
27413;DHT22;14871;52.702;5.230;2024-02-04T03:08:23;10.00;99.90
27413;DHT22;14871;52.702;5.230;2024-02-04T03:10:49;10.00;99.90
27413;DHT22;14871;52.702;5.230;2024-02-04T03:13:14;10.10;99.90
27413;DHT22;14871;52.702;5.230;2024-02-04T03:15:40;9.90;99.90
27413;DHT22;14871;52.702;5.230;2024-02-04T03:18:08;9.90;99.90
27413;DHT22;14871;52.702;5.230;2024-02-04T03:20:33;9.90;99.90
27413;DHT22;14871;52.702;5.230;2024-02-04T03:22:59;9.90;99.90
27413;DHT22;14871;52.702;5.230;2024-02-04T03:25:24;9.80;99.90
27413;DHT22;14871;52.702;5.230;2024-02-04T03:27:52;9.80;99.90
27413;DHT22;14871;52.702;5.230;2024-02-04T03:30:18;9.80;99.90
27413;DHT22;14871;52.702;5.230;2024-02-04T03:32:44;9.80;99.90
27413;DHT22;14871;52.702;5.230;2024-02-04T03:35:09;9.80;99.90
27413;DHT22;14871;52.702;5.230;2024-02-04T03:37:35;9.80;99.90
27413;DHT22;14871;52.702;5.230;2024-02-04T03:40:00;9.80;99.90
27413;DHT22;14871;52.702;5.230;2024-02-04T03:42:26;9.70;99.90
27413;DHT22;14871;52.702;5.230;2024-02-04T03:44:52;9.80;99.90
27413;DHT22;14871;52.702;5.230;2024-02-04T03:47:17;9.80;99.90
27413;DHT22;14871;52.702;5.230;2024-02-04T03:49:43;9.70;99.90
27413;DHT22;14871;52.702;5.230;2024-02-04T03:52:08;9.60;99.90
27413;DHT22;14871;52.702;5.230;2024-02-04T03:54:34;9.70;99.90
27413;DHT22;14871;52.702;5.230;2024-02-04T03:56:59;9.70;99.90
27413;DHT22;14871;52.702;5.230;2024-02-04T03:59:25;9.50;99.90
27413;DHT22;14871;52.702;5.230;2024-02-04T04:01:51;9.60;99.90
27413;DHT22;14871;52.702;5.230;2024-02-04T04:04:18;9.70;99.90
27413;DHT22;14871;52.702;5.230;2024-02-04T04:06:44;9.80;99.90
27413;DHT22;14871;52.702;5.230;2024-02-04T04:09:10;9.80;99.90
27413;DHT22;14871;52.702;5.230;2024-02-04T04:11:36;10.00;99.90
27413;DHT22;14871;52.702;5.230;2024-02-04T04:14:02;9.80;99.90
27413;DHT22;14871;52.702;5.230;2024-02-04T04:16:28;9.80;99.90
27413;DHT22;14871;52.702;5.230;2024-02-04T04:18:54;9.70;99.90
27413;DHT22;14871;52.702;5.230;2024-02-04T04:21:20;9.70;99.90
27413;DHT22;14871;52.702;5.230;2024-02-04T04:23:46;9.90;99.90
27413;DHT22;14871;52.702;5.230;2024-02-04T04:26:11;9.70;99.90
27413;DHT22;14871;52.702;5.230;2024-02-04T04:28:37;9.90;99.90
27413;DHT22;14871;52.702;5.230;2024-02-04T04:31:03;9.80;99.90
27413;DHT22;14871;52.702;5.230;2024-02-04T04:33:29;9.60;99.90
27413;DHT22;14871;52.702;5.230;2024-02-04T04:35:55;9.70;99.90
27413;DHT22;14871;52.702;5.230;2024-02-04T04:38:21;9.80;99.90
27413;DHT22;14871;52.702;5.230;2024-02-04T04:40:47;9.90;99.90
27413;DHT22;14871;52.702;5.230;2024-02-04T04:43:12;9.90;99.90
27413;DHT22;14871;52.702;5.230;2024-02-04T04:45:38;10.10;99.90
27413;DHT22;14871;52.702;5.230;2024-02-04T04:48:04;10.20;99.90
27413;DHT22;14871;52.702;5.230;2024-02-04T04:50:30;10.20;99.90
27413;DHT22;14871;52.702;5.230;2024-02-04T04:52:55;10.00;99.90
27413;DHT22;14871;52.702;5.230;2024-02-04T04:55:21;9.80;99.90
27413;DHT22;14871;52.702;5.230;2024-02-04T04:57:47;9.80;99.90
27413;DHT22;14871;52.702;5.230;2024-02-04T05:00:13;9.90;99.90
27413;DHT22;14871;52.702;5.230;2024-02-04T05:02:42;9.90;99.90
27413;DHT22;14871;52.702;5.230;2024-02-04T05:05:10;10.00;99.90
27413;DHT22;14871;52.702;5.230;2024-02-04T05:07:36;9.90;99.90
27413;DHT22;14871;52.702;5.230;2024-02-04T05:10:02;9.80;99.90
27413;DHT22;14871;52.702;5.230;2024-02-04T05:12:27;9.80;99.90
27413;DHT22;14871;52.702;5.230;2024-02-04T05:14:53;9.80;99.90
27413;DHT22;14871;52.702;5.230;2024-02-04T05:17:18;9.90;99.90
27413;DHT22;14871;52.702;5.230;2024-02-04T05:19:44;9.90;99.90
27413;DHT22;14871;52.702;5.230;2024-02-04T05:22:10;9.80;99.90
27413;DHT22;14871;52.702;5.230;2024-02-04T05:24:35;9.90;99.90
27413;DHT22;14871;52.702;5.230;2024-02-04T05:27:01;10.00;99.90
27413;DHT22;14871;52.702;5.230;2024-02-04T05:29:27;10.10;99.90
27413;DHT22;14871;52.702;5.230;2024-02-04T05:31:53;9.90;99.90
27413;DHT22;14871;52.702;5.230;2024-02-04T05:34:18;10.00;99.90
27413;DHT22;14871;52.702;5.230;2024-02-04T05:36:44;10.00;99.90
27413;DHT22;14871;52.702;5.230;2024-02-04T05:39:11;9.90;99.90
27413;DHT22;14871;52.702;5.230;2024-02-04T05:41:37;10.10;99.90
27413;DHT22;14871;52.702;5.230;2024-02-04T05:44:03;10.10;99.90
27413;DHT22;14871;52.702;5.230;2024-02-04T05:46:28;10.10;99.90
27413;DHT22;14871;52.702;5.230;2024-02-04T05:48:54;10.20;99.90
27413;DHT22;14871;52.702;5.230;2024-02-04T05:51:19;10.30;99.90
27413;DHT22;14871;52.702;5.230;2024-02-04T05:53:45;10.10;99.90
27413;DHT22;14871;52.702;5.230;2024-02-04T05:56:11;10.30;99.90
27413;DHT22;14871;52.702;5.230;2024-02-04T05:58:36;10.40;99.90
27413;DHT22;14871;52.702;5.230;2024-02-04T06:01:02;10.40;99.90
27413;DHT22;14871;52.702;5.230;2024-02-04T06:03:28;10.30;99.90
27413;DHT22;14871;52.702;5.230;2024-02-04T06:05:53;10.30;99.90
27413;DHT22;14871;52.702;5.230;2024-02-04T06:08:19;10.30;99.90
27413;DHT22;14871;52.702;5.230;2024-02-04T06:10:44;10.40;99.90
27413;DHT22;14871;52.702;5.230;2024-02-04T06:13:10;10.60;99.90
27413;DHT22;14871;52.702;5.230;2024-02-04T06:15:35;10.50;99.90
27413;DHT22;14871;52.702;5.230;2024-02-04T06:18:01;10.50;99.90
27413;DHT22;14871;52.702;5.230;2024-02-04T06:20:27;10.40;99.90
27413;DHT22;14871;52.702;5.230;2024-02-04T06:22:52;10.30;99.90
27413;DHT22;14871;52.702;5.230;2024-02-04T06:25:18;10.40;99.90
27413;DHT22;14871;52.702;5.230;2024-02-04T06:27:44;10.30;99.90
27413;DHT22;14871;52.702;5.230;2024-02-04T06:30:10;10.40;99.90
27413;DHT22;14871;52.702;5.230;2024-02-04T06:32:35;10.40;99.90
27413;DHT22;14871;52.702;5.230;2024-02-04T06:35:01;10.40;99.90
27413;DHT22;14871;52.702;5.230;2024-02-04T06:37:27;10.40;99.90
27413;DHT22;14871;52.702;5.230;2024-02-04T06:39:53;10.40;99.90
27413;DHT22;14871;52.702;5.230;2024-02-04T06:42:19;10.60;99.90
27413;DHT22;14871;52.702;5.230;2024-02-04T06:44:45;10.50;99.90
27413;DHT22;14871;52.702;5.230;2024-02-04T06:47:11;10.70;99.90
27413;DHT22;14871;52.702;5.230;2024-02-04T06:49:43;10.50;99.90
27413;DHT22;14871;52.702;5.230;2024-02-04T06:52:10;10.50;99.90
27413;DHT22;14871;52.702;5.230;2024-02-04T06:54:35;10.60;99.90
27413;DHT22;14871;52.702;5.230;2024-02-04T06:57:01;10.70;99.90
27413;DHT22;14871;52.702;5.230;2024-02-04T06:59:26;10.70;99.90
27413;DHT22;14871;52.702;5.230;2024-02-04T07:01:52;10.50;99.90
27413;DHT22;14871;52.702;5.230;2024-02-04T07:04:19;10.60;99.90
27413;DHT22;14871;52.702;5.230;2024-02-04T07:06:47;10.50;99.90
27413;DHT22;14871;52.702;5.230;2024-02-04T07:09:12;10.50;99.90
27413;DHT22;14871;52.702;5.230;2024-02-04T07:11:38;10.70;99.90
27413;DHT22;14871;52.702;5.230;2024-02-04T07:14:04;10.60;99.90
27413;DHT22;14871;52.702;5.230;2024-02-04T07:16:31;10.50;99.90
27413;DHT22;14871;52.702;5.230;2024-02-04T07:18:57;10.40;99.90
27413;DHT22;14871;52.702;5.230;2024-02-04T07:21:22;10.60;99.90
27413;DHT22;14871;52.702;5.230;2024-02-04T07:23:48;10.50;99.90
27413;DHT22;14871;52.702;5.230;2024-02-04T07:26:14;10.60;99.90
27413;DHT22;14871;52.702;5.230;2024-02-04T07:28:39;10.70;99.90
27413;DHT22;14871;52.702;5.230;2024-02-04T07:31:05;10.40;99.90
27413;DHT22;14871;52.702;5.230;2024-02-04T07:33:31;10.50;99.90
27413;DHT22;14871;52.702;5.230;2024-02-04T07:35:56;10.40;99.90
27413;DHT22;14871;52.702;5.230;2024-02-04T07:38:22;10.50;99.90
27413;DHT22;14871;52.702;5.230;2024-02-04T07:40:49;10.40;99.90
27413;DHT22;14871;52.702;5.230;2024-02-04T07:43:14;10.30;99.90
27413;DHT22;14871;52.702;5.230;2024-02-04T07:45:40;10.40;99.90
27413;DHT22;14871;52.702;5.230;2024-02-04T07:48:06;10.40;99.90
27413;DHT22;14871;52.702;5.230;2024-02-04T07:50:32;10.30;99.90
27413;DHT22;14871;52.702;5.230;2024-02-04T07:52:58;10.40;99.90
27413;DHT22;14871;52.702;5.230;2024-02-04T07:55:23;10.20;99.90
27413;DHT22;14871;52.702;5.230;2024-02-04T07:57:49;10.50;99.90
27413;DHT22;14871;52.702;5.230;2024-02-04T08:00:14;10.50;99.90
27413;DHT22;14871;52.702;5.230;2024-02-04T08:02:40;10.50;99.90
27413;DHT22;14871;52.702;5.230;2024-02-04T08:05:06;10.50;99.90
27413;DHT22;14871;52.702;5.230;2024-02-04T08:07:32;10.60;99.90
27413;DHT22;14871;52.702;5.230;2024-02-04T08:09:57;10.50;99.90
27413;DHT22;14871;52.702;5.230;2024-02-04T08:12:23;10.50;99.90
27413;DHT22;14871;52.702;5.230;2024-02-04T08:14:49;10.40;99.90
27413;DHT22;14871;52.702;5.230;2024-02-04T08:17:15;10.50;99.90
27413;DHT22;14871;52.702;5.230;2024-02-04T08:19:41;10.60;99.90
27413;DHT22;14871;52.702;5.230;2024-02-04T08:22:07;10.80;99.90
27413;DHT22;14871;52.702;5.230;2024-02-04T08:24:33;10.70;99.90
27413;DHT22;14871;52.702;5.230;2024-02-04T08:26:59;10.70;99.90
27413;DHT22;14871;52.702;5.230;2024-02-04T08:29:25;10.90;99.90
27413;DHT22;14871;52.702;5.230;2024-02-04T08:31:52;11.10;99.90
27413;DHT22;14871;52.702;5.230;2024-02-04T08:34:18;11.10;99.90
27413;DHT22;14871;52.702;5.230;2024-02-04T08:36:45;11.00;99.90
27413;DHT22;14871;52.702;5.230;2024-02-04T08:39:11;10.90;99.90
27413;DHT22;14871;52.702;5.230;2024-02-04T08:41:37;11.00;99.90
27413;DHT22;14871;52.702;5.230;2024-02-04T08:44:02;10.90;99.90
27413;DHT22;14871;52.702;5.230;2024-02-04T08:46:28;11.10;99.90
27413;DHT22;14871;52.702;5.230;2024-02-04T08:48:53;11.20;99.90
27413;DHT22;14871;52.702;5.230;2024-02-04T08:51:19;11.20;99.90
27413;DHT22;14871;52.702;5.230;2024-02-04T08:53:45;11.20;99.90
27413;DHT22;14871;52.702;5.230;2024-02-04T08:56:10;11.20;99.90
27413;DHT22;14871;52.702;5.230;2024-02-04T08:58:36;11.20;99.90
27413;DHT22;14871;52.702;5.230;2024-02-04T09:01:06;11.00;99.90
27413;DHT22;14871;52.702;5.230;2024-02-04T09:03:32;10.90;99.90
27413;DHT22;14871;52.702;5.230;2024-02-04T09:05:58;10.90;99.90
27413;DHT22;14871;52.702;5.230;2024-02-04T09:08:24;10.90;99.90
27413;DHT22;14871;52.702;5.230;2024-02-04T09:10:49;10.90;99.90
27413;DHT22;14871;52.702;5.230;2024-02-04T09:13:15;11.00;99.90
27413;DHT22;14871;52.702;5.230;2024-02-04T09:15:40;10.90;99.90
27413;DHT22;14871;52.702;5.230;2024-02-04T09:18:07;11.00;99.90
27413;DHT22;14871;52.702;5.230;2024-02-04T09:20:33;11.10;99.90
27413;DHT22;14871;52.702;5.230;2024-02-04T09:22:58;11.10;99.90
27413;DHT22;14871;52.702;5.230;2024-02-04T09:25:27;11.10;99.90
27413;DHT22;14871;52.702;5.230;2024-02-04T09:27:53;11.10;99.90
27413;DHT22;14871;52.702;5.230;2024-02-04T09:30:18;11.10;99.90
27413;DHT22;14871;52.702;5.230;2024-02-04T09:32:44;11.40;99.90
27413;DHT22;14871;52.702;5.230;2024-02-04T09:35:09;11.30;99.90
27413;DHT22;14871;52.702;5.230;2024-02-04T09:37:35;11.30;99.90
27413;DHT22;14871;52.702;5.230;2024-02-04T09:40:01;11.20;99.90
27413;DHT22;14871;52.702;5.230;2024-02-04T09:42:27;11.30;99.90
27413;DHT22;14871;52.702;5.230;2024-02-04T09:44:53;11.20;99.90
27413;DHT22;14871;52.702;5.230;2024-02-04T09:47:20;11.20;99.90
27413;DHT22;14871;52.702;5.230;2024-02-04T09:49:46;11.60;99.90
27413;DHT22;14871;52.702;5.230;2024-02-04T09:52:13;11.60;99.90
27413;DHT22;14871;52.702;5.230;2024-02-04T09:54:50;11.50;99.90
27413;DHT22;14871;52.702;5.230;2024-02-04T09:57:16;11.70;99.90
27413;DHT22;14871;52.702;5.230;2024-02-04T09:59:43;11.50;99.90
27413;DHT22;14871;52.702;5.230;2024-02-04T10:02:09;11.50;99.90
27413;DHT22;14871;52.702;5.230;2024-02-04T10:04:35;11.50;99.90
27413;DHT22;14871;52.702;5.230;2024-02-04T10:07:01;11.40;99.90
27413;DHT22;14871;52.702;5.230;2024-02-04T10:09:27;11.60;99.90
27413;DHT22;14871;52.702;5.230;2024-02-04T10:11:53;11.80;99.90
27413;DHT22;14871;52.702;5.230;2024-02-04T10:14:18;11.80;99.90
27413;DHT22;14871;52.702;5.230;2024-02-04T10:16:45;11.60;99.90
27413;DHT22;14871;52.702;5.230;2024-02-04T10:19:11;11.70;99.90
27413;DHT22;14871;52.702;5.230;2024-02-04T10:21:37;11.70;99.90
27413;DHT22;14871;52.702;5.230;2024-02-04T10:24:03;12.00;99.90
27413;DHT22;14871;52.702;5.230;2024-02-04T10:26:32;11.90;99.90
27413;DHT22;14871;52.702;5.230;2024-02-04T10:28:59;12.00;99.90
27413;DHT22;14871;52.702;5.230;2024-02-04T10:31:26;12.00;99.90
27413;DHT22;14871;52.702;5.230;2024-02-04T10:33:52;11.90;99.90
27413;DHT22;14871;52.702;5.230;2024-02-04T10:36:18;11.60;99.90
27413;DHT22;14871;52.702;5.230;2024-02-04T10:38:43;11.60;99.90
27413;DHT22;14871;52.702;5.230;2024-02-04T10:41:14;11.60;99.90
27413;DHT22;14871;52.702;5.230;2024-02-04T10:43:42;11.50;99.90
27413;DHT22;14871;52.702;5.230;2024-02-04T10:46:22;11.50;99.90
27413;DHT22;14871;52.702;5.230;2024-02-04T10:49:14;11.40;99.90
27413;DHT22;14871;52.702;5.230;2024-02-04T10:51:41;11.30;99.90
27413;DHT22;14871;52.702;5.230;2024-02-04T10:54:08;11.30;99.90
27413;DHT22;14871;52.702;5.230;2024-02-04T10:56:44;11.30;99.90
27413;DHT22;14871;52.702;5.230;2024-02-04T10:59:10;11.40;99.90
27413;DHT22;14871;52.702;5.230;2024-02-04T11:01:40;11.40;99.90
27413;DHT22;14871;52.702;5.230;2024-02-04T11:04:11;11.40;99.90
27413;DHT22;14871;52.702;5.230;2024-02-04T11:06:40;11.60;99.90
27413;DHT22;14871;52.702;5.230;2024-02-04T11:09:08;11.50;99.90
27413;DHT22;14871;52.702;5.230;2024-02-04T11:11:37;11.60;99.90
27413;DHT22;14871;52.702;5.230;2024-02-04T11:14:05;11.60;99.90
27413;DHT22;14871;52.702;5.230;2024-02-04T11:19:32;11.70;99.90
27413;DHT22;14871;52.702;5.230;2024-02-04T11:27:52;11.60;99.90
27413;DHT22;14871;52.702;5.230;2024-02-04T11:30:18;11.60;99.90
27413;DHT22;14871;52.702;5.230;2024-02-04T11:32:45;11.70;99.90
27413;DHT22;14871;52.702;5.230;2024-02-04T11:35:12;11.70;99.90
27413;DHT22;14871;52.702;5.230;2024-02-04T11:37:38;11.80;99.90
27413;DHT22;14871;52.702;5.230;2024-02-04T11:40:07;11.90;99.90
27413;DHT22;14871;52.702;5.230;2024-02-04T11:42:33;11.80;99.90
27413;DHT22;14871;52.702;5.230;2024-02-04T11:45:11;11.80;99.90
27413;DHT22;14871;52.702;5.230;2024-02-04T11:47:38;12.10;99.90
27413;DHT22;14871;52.702;5.230;2024-02-04T11:50:05;12.00;99.90
27413;DHT22;14871;52.702;5.230;2024-02-04T11:52:30;12.10;99.90
27413;DHT22;14871;52.702;5.230;2024-02-04T11:54:56;12.30;99.90
27413;DHT22;14871;52.702;5.230;2024-02-04T11:57:23;12.70;99.90
27413;DHT22;14871;52.702;5.230;2024-02-04T11:59:50;13.10;99.90
27413;DHT22;14871;52.702;5.230;2024-02-04T12:02:17;13.70;99.90
27413;DHT22;14871;52.702;5.230;2024-02-04T12:04:46;13.50;99.90
27413;DHT22;14871;52.702;5.230;2024-02-04T12:07:13;13.70;99.90
27413;DHT22;14871;52.702;5.230;2024-02-04T12:09:40;13.60;99.90
27413;DHT22;14871;52.702;5.230;2024-02-04T12:12:06;13.30;99.90
27413;DHT22;14871;52.702;5.230;2024-02-04T12:14:32;13.30;99.90
27413;DHT22;14871;52.702;5.230;2024-02-04T12:17:07;13.30;99.90
27413;DHT22;14871;52.702;5.230;2024-02-04T12:19:32;13.40;99.90
27413;DHT22;14871;52.702;5.230;2024-02-04T12:21:58;13.30;99.90
27413;DHT22;14871;52.702;5.230;2024-02-04T12:24:23;13.40;99.90
27413;DHT22;14871;52.702;5.230;2024-02-04T12:26:49;13.20;99.90
27413;DHT22;14871;52.702;5.230;2024-02-04T12:29:14;13.30;99.90
27413;DHT22;14871;52.702;5.230;2024-02-04T12:31:40;13.10;99.90
27413;DHT22;14871;52.702;5.230;2024-02-04T12:34:07;12.90;99.90
27413;DHT22;14871;52.702;5.230;2024-02-04T12:36:33;12.70;99.90
27413;DHT22;14871;52.702;5.230;2024-02-04T12:39:02;12.70;99.90
27413;DHT22;14871;52.702;5.230;2024-02-04T12:41:35;12.70;99.90
27413;DHT22;14871;52.702;5.230;2024-02-04T12:44:01;12.60;99.90
27413;DHT22;14871;52.702;5.230;2024-02-04T12:46:28;12.60;99.90
27413;DHT22;14871;52.702;5.230;2024-02-04T12:48:55;12.50;99.90
27413;DHT22;14871;52.702;5.230;2024-02-04T12:51:30;12.40;99.90
27413;DHT22;14871;52.702;5.230;2024-02-04T12:54:09;12.30;99.90
27413;DHT22;14871;52.702;5.230;2024-02-04T12:56:46;12.40;99.90
27413;DHT22;14871;52.702;5.230;2024-02-04T12:59:22;12.30;99.90
27413;DHT22;14871;52.702;5.230;2024-02-04T13:01:54;12.60;99.90
27413;DHT22;14871;52.702;5.230;2024-02-04T13:04:20;12.50;99.90
27413;DHT22;14871;52.702;5.230;2024-02-04T13:06:46;12.40;99.90
27413;DHT22;14871;52.702;5.230;2024-02-04T13:09:14;12.70;99.90
27413;DHT22;14871;52.702;5.230;2024-02-04T13:11:41;12.80;99.90
27413;DHT22;14871;52.702;5.230;2024-02-04T13:14:08;12.70;99.90
27413;DHT22;14871;52.702;5.230;2024-02-04T13:16:33;12.50;99.90
27413;DHT22;14871;52.702;5.230;2024-02-04T13:19:01;12.50;99.90
27413;DHT22;14871;52.702;5.230;2024-02-04T13:21:28;12.50;99.90
27413;DHT22;14871;52.702;5.230;2024-02-04T13:23:54;12.50;99.90
27413;DHT22;14871;52.702;5.230;2024-02-04T13:26:20;12.60;99.90
27413;DHT22;14871;52.702;5.230;2024-02-04T13:28:46;12.50;99.90
27413;DHT22;14871;52.702;5.230;2024-02-04T13:31:11;12.70;99.90
27413;DHT22;14871;52.702;5.230;2024-02-04T13:33:41;12.70;99.90
27413;DHT22;14871;52.702;5.230;2024-02-04T13:36:10;12.70;99.90
27413;DHT22;14871;52.702;5.230;2024-02-04T13:38:36;12.70;99.90
27413;DHT22;14871;52.702;5.230;2024-02-04T13:41:02;12.70;99.90
27413;DHT22;14871;52.702;5.230;2024-02-04T13:43:31;12.70;99.90
27413;DHT22;14871;52.702;5.230;2024-02-04T13:45:57;12.70;99.90
27413;DHT22;14871;52.702;5.230;2024-02-04T13:48:22;12.90;99.90
27413;DHT22;14871;52.702;5.230;2024-02-04T13:50:51;12.80;99.90
27413;DHT22;14871;52.702;5.230;2024-02-04T13:53:16;12.90;99.90
27413;DHT22;14871;52.702;5.230;2024-02-04T13:55:42;12.80;99.90
27413;DHT22;14871;52.702;5.230;2024-02-04T13:58:09;12.80;99.90
27413;DHT22;14871;52.702;5.230;2024-02-04T14:00:35;12.80;99.90
27413;DHT22;14871;52.702;5.230;2024-02-04T14:03:00;12.70;99.90
27413;DHT22;14871;52.702;5.230;2024-02-04T14:05:26;12.60;99.90
27413;DHT22;14871;52.702;5.230;2024-02-04T14:07:52;12.40;99.90
27413;DHT22;14871;52.702;5.230;2024-02-04T14:10:17;12.60;99.90
27413;DHT22;14871;52.702;5.230;2024-02-04T14:12:43;12.60;99.90
27413;DHT22;14871;52.702;5.230;2024-02-04T14:15:11;12.60;99.90
27413;DHT22;14871;52.702;5.230;2024-02-04T14:17:37;12.70;99.90
27413;DHT22;14871;52.702;5.230;2024-02-04T14:20:03;12.60;99.90
27413;DHT22;14871;52.702;5.230;2024-02-04T14:22:30;12.50;99.90
27413;DHT22;14871;52.702;5.230;2024-02-04T14:24:56;12.50;99.90
27413;DHT22;14871;52.702;5.230;2024-02-04T14:27:22;12.60;99.90
27413;DHT22;14871;52.702;5.230;2024-02-04T14:29:48;12.60;99.90
27413;DHT22;14871;52.702;5.230;2024-02-04T14:32:14;12.70;99.90
27413;DHT22;14871;52.702;5.230;2024-02-04T14:34:39;12.90;99.90
27413;DHT22;14871;52.702;5.230;2024-02-04T14:37:05;12.70;99.90
27413;DHT22;14871;52.702;5.230;2024-02-04T14:39:31;12.70;99.90
27413;DHT22;14871;52.702;5.230;2024-02-04T14:41:57;12.80;99.90
27413;DHT22;14871;52.702;5.230;2024-02-04T14:44:23;12.60;99.90
27413;DHT22;14871;52.702;5.230;2024-02-04T14:46:49;12.80;99.90
27413;DHT22;14871;52.702;5.230;2024-02-04T14:49:15;12.60;99.90
27413;DHT22;14871;52.702;5.230;2024-02-04T14:51:41;12.70;99.90
27413;DHT22;14871;52.702;5.230;2024-02-04T14:54:07;12.70;99.90
27413;DHT22;14871;52.702;5.230;2024-02-04T14:56:42;12.80;99.90
27413;DHT22;14871;52.702;5.230;2024-02-04T14:59:09;12.60;99.90
27413;DHT22;14871;52.702;5.230;2024-02-04T15:01:36;12.60;99.90
27413;DHT22;14871;52.702;5.230;2024-02-04T15:04:02;12.60;99.90
27413;DHT22;14871;52.702;5.230;2024-02-04T15:06:28;12.70;99.90
27413;DHT22;14871;52.702;5.230;2024-02-04T15:08:55;12.60;99.90
27413;DHT22;14871;52.702;5.230;2024-02-04T15:11:21;12.70;99.90
27413;DHT22;14871;52.702;5.230;2024-02-04T15:13:47;12.50;99.90
27413;DHT22;14871;52.702;5.230;2024-02-04T15:16:13;12.70;99.90
27413;DHT22;14871;52.702;5.230;2024-02-04T15:18:39;12.50;99.90
27413;DHT22;14871;52.702;5.230;2024-02-04T15:21:05;12.40;99.90
27413;DHT22;14871;52.702;5.230;2024-02-04T15:23:31;12.40;99.90
27413;DHT22;14871;52.702;5.230;2024-02-04T15:25:57;12.50;99.90
27413;DHT22;14871;52.702;5.230;2024-02-04T15:28:24;12.50;99.90
27413;DHT22;14871;52.702;5.230;2024-02-04T15:30:50;12.40;99.90
27413;DHT22;14871;52.702;5.230;2024-02-04T15:33:16;12.30;99.90
27413;DHT22;14871;52.702;5.230;2024-02-04T15:35:46;12.30;99.90
27413;DHT22;14871;52.702;5.230;2024-02-04T15:38:11;12.40;99.90
27413;DHT22;14871;52.702;5.230;2024-02-04T15:40:37;12.40;99.90
27413;DHT22;14871;52.702;5.230;2024-02-04T15:43:03;12.60;99.90